sensor_id;sensor_type;location;lat;lon;timestamp;temperature;humidity
42755;DHT22;28407;51.830;5.684;2022-12-29T00:00:30;11.20;92.10
42755;DHT22;28407;51.830;5.684;2022-12-29T00:02:31;11.20;92.10
42755;DHT22;28407;51.830;5.684;2022-12-29T00:04:31;11.20;92.10
42755;DHT22;28407;51.830;5.684;2022-12-29T00:06:32;11.20;92.10
42755;DHT22;28407;51.830;5.684;2022-12-29T00:08:33;11.20;92.10
42755;DHT22;28407;51.830;5.684;2022-12-29T00:10:39;11.20;92.10
42755;DHT22;28407;51.830;5.684;2022-12-29T00:12:40;11.20;92.00
42755;DHT22;28407;51.830;5.684;2022-12-29T00:14:59;11.20;92.00
42755;DHT22;28407;51.830;5.684;2022-12-29T00:17:18;11.20;92.00
42755;DHT22;28407;51.830;5.684;2022-12-29T00:19:18;11.30;92.00
42755;DHT22;28407;51.830;5.684;2022-12-29T00:21:38;11.20;92.00
42755;DHT22;28407;51.830;5.684;2022-12-29T00:23:57;11.20;92.00
42755;DHT22;28407;51.830;5.684;2022-12-29T00:26:17;11.20;92.00
42755;DHT22;28407;51.830;5.684;2022-12-29T00:28:36;11.20;92.00
42755;DHT22;28407;51.830;5.684;2022-12-29T00:30:59;11.20;92.00
42755;DHT22;28407;51.830;5.684;2022-12-29T00:33:20;11.20;92.00
42755;DHT22;28407;51.830;5.684;2022-12-29T00:35:44;11.20;92.00
42755;DHT22;28407;51.830;5.684;2022-12-29T00:37:47;11.20;92.00
42755;DHT22;28407;51.830;5.684;2022-12-29T00:40:08;11.20;92.00
42755;DHT22;28407;51.830;5.684;2022-12-29T00:42:27;11.20;92.00
42755;DHT22;28407;51.830;5.684;2022-12-29T00:44:47;11.20;92.00
42755;DHT22;28407;51.830;5.684;2022-12-29T00:46:48;11.20;92.00
42755;DHT22;28407;51.830;5.684;2022-12-29T00:48:48;11.20;92.10
42755;DHT22;28407;51.830;5.684;2022-12-29T00:51:08;11.20;92.10
42755;DHT22;28407;51.830;5.684;2022-12-29T00:53:08;11.20;92.10
42755;DHT22;28407;51.830;5.684;2022-12-29T00:55:09;11.20;92.00
42755;DHT22;28407;51.830;5.684;2022-12-29T00:57:10;11.20;92.00
42755;DHT22;28407;51.830;5.684;2022-12-29T00:59:12;11.20;92.00
42755;DHT22;28407;51.830;5.684;2022-12-29T01:01:13;11.20;92.00
42755;DHT22;28407;51.830;5.684;2022-12-29T01:03:13;11.20;92.00
42755;DHT22;28407;51.830;5.684;2022-12-29T01:05:14;11.20;92.00
42755;DHT22;28407;51.830;5.684;2022-12-29T01:07:14;11.20;92.00
42755;DHT22;28407;51.830;5.684;2022-12-29T01:09:16;11.20;92.00
42755;DHT22;28407;51.830;5.684;2022-12-29T01:11:35;11.20;92.00
42755;DHT22;28407;51.830;5.684;2022-12-29T01:13:36;11.20;92.00
42755;DHT22;28407;51.830;5.684;2022-12-29T01:15:38;11.20;92.00
42755;DHT22;28407;51.830;5.684;2022-12-29T01:17:39;11.20;92.00
42755;DHT22;28407;51.830;5.684;2022-12-29T01:19:39;11.20;92.00
42755;DHT22;28407;51.830;5.684;2022-12-29T01:21:40;11.10;92.00
42755;DHT22;28407;51.830;5.684;2022-12-29T01:23:41;11.20;92.10
42755;DHT22;28407;51.830;5.684;2022-12-29T01:25:41;11.10;92.00
42755;DHT22;28407;51.830;5.684;2022-12-29T01:27:42;11.10;92.10
42755;DHT22;28407;51.830;5.684;2022-12-29T01:29:42;11.10;92.10
42755;DHT22;28407;51.830;5.684;2022-12-29T01:31:43;11.10;92.10
42755;DHT22;28407;51.830;5.684;2022-12-29T01:33:44;11.10;92.10
42755;DHT22;28407;51.830;5.684;2022-12-29T01:35:45;11.00;92.10
42755;DHT22;28407;51.830;5.684;2022-12-29T01:37:46;11.10;92.20
42755;DHT22;28407;51.830;5.684;2022-12-29T01:39:47;11.10;92.20
42755;DHT22;28407;51.830;5.684;2022-12-29T01:41:47;11.10;92.20
42755;DHT22;28407;51.830;5.684;2022-12-29T01:43:54;11.10;92.20
42755;DHT22;28407;51.830;5.684;2022-12-29T01:45:57;11.10;92.20
42755;DHT22;28407;51.830;5.684;2022-12-29T01:48:01;11.10;92.20
42755;DHT22;28407;51.830;5.684;2022-12-29T01:50:26;11.10;92.20
42755;DHT22;28407;51.830;5.684;2022-12-29T01:52:32;11.10;92.20
42755;DHT22;28407;51.830;5.684;2022-12-29T01:54:40;11.10;92.20
42755;DHT22;28407;51.830;5.684;2022-12-29T01:56:41;11.10;92.20
42755;DHT22;28407;51.830;5.684;2022-12-29T01:58:45;11.10;92.20
42755;DHT22;28407;51.830;5.684;2022-12-29T02:00:47;11.10;92.20
42755;DHT22;28407;51.830;5.684;2022-12-29T02:02:52;11.10;92.20
42755;DHT22;28407;51.830;5.684;2022-12-29T02:04:53;11.20;92.30
42755;DHT22;28407;51.830;5.684;2022-12-29T02:07:01;11.20;92.20
42755;DHT22;28407;51.830;5.684;2022-12-29T02:09:03;11.20;92.20
42755;DHT22;28407;51.830;5.684;2022-12-29T02:11:03;11.30;92.20
42755;DHT22;28407;51.830;5.684;2022-12-29T02:13:08;11.30;92.20
42755;DHT22;28407;51.830;5.684;2022-12-29T02:15:08;11.30;92.10
42755;DHT22;28407;51.830;5.684;2022-12-29T02:29:35;11.40;91.80
42755;DHT22;28407;51.830;5.684;2022-12-29T02:34:08;11.50;91.60
42755;DHT22;28407;51.830;5.684;2022-12-29T02:36:21;11.50;91.60
42755;DHT22;28407;51.830;5.684;2022-12-29T02:43:26;11.60;91.40
42755;DHT22;28407;51.830;5.684;2022-12-29T02:50:01;11.60;91.30
42755;DHT22;28407;51.830;5.684;2022-12-29T02:52:10;11.60;91.30
42755;DHT22;28407;51.830;5.684;2022-12-29T02:54:12;11.60;91.20
42755;DHT22;28407;51.830;5.684;2022-12-29T02:56:32;11.60;91.10
42755;DHT22;28407;51.830;5.684;2022-12-29T02:58:32;11.60;91.10
42755;DHT22;28407;51.830;5.684;2022-12-29T03:00:35;11.70;91.10
42755;DHT22;28407;51.830;5.684;2022-12-29T03:03:11;11.70;91.00
42755;DHT22;28407;51.830;5.684;2022-12-29T03:08:23;11.70;90.90
42755;DHT22;28407;51.830;5.684;2022-12-29T03:15:27;11.70;90.70
42755;DHT22;28407;51.830;5.684;2022-12-29T03:17:56;11.70;90.70
42755;DHT22;28407;51.830;5.684;2022-12-29T03:20:06;11.70;90.70
42755;DHT22;28407;51.830;5.684;2022-12-29T03:22:19;11.70;90.60
42755;DHT22;28407;51.830;5.684;2022-12-29T03:24:42;11.70;90.60
42755;DHT22;28407;51.830;5.684;2022-12-29T03:26:45;11.70;90.60
42755;DHT22;28407;51.830;5.684;2022-12-29T03:28:54;11.70;90.60
42755;DHT22;28407;51.830;5.684;2022-12-29T03:30:59;11.70;90.60
42755;DHT22;28407;51.830;5.684;2022-12-29T03:33:04;11.70;90.60
42755;DHT22;28407;51.830;5.684;2022-12-29T03:35:08;11.70;90.60
42755;DHT22;28407;51.830;5.684;2022-12-29T03:37:14;11.70;90.50
42755;DHT22;28407;51.830;5.684;2022-12-29T03:39:17;11.70;90.50
42755;DHT22;28407;51.830;5.684;2022-12-29T03:41:23;11.70;90.50
42755;DHT22;28407;51.830;5.684;2022-12-29T03:43:26;11.70;90.50
42755;DHT22;28407;51.830;5.684;2022-12-29T03:45:29;11.70;90.50
42755;DHT22;28407;51.830;5.684;2022-12-29T03:47:29;11.70;90.50
42755;DHT22;28407;51.830;5.684;2022-12-29T03:49:30;11.70;90.50
42755;DHT22;28407;51.830;5.684;2022-12-29T03:51:31;11.70;90.50
42755;DHT22;28407;51.830;5.684;2022-12-29T03:53:31;11.70;90.50
42755;DHT22;28407;51.830;5.684;2022-12-29T03:55:32;11.70;90.50
42755;DHT22;28407;51.830;5.684;2022-12-29T03:57:33;11.70;90.50
42755;DHT22;28407;51.830;5.684;2022-12-29T03:59:38;11.70;90.50
42755;DHT22;28407;51.830;5.684;2022-12-29T04:01:38;11.70;90.50
42755;DHT22;28407;51.830;5.684;2022-12-29T04:03:39;11.70;90.50
42755;DHT22;28407;51.830;5.684;2022-12-29T04:05:39;11.60;90.50
42755;DHT22;28407;51.830;5.684;2022-12-29T04:07:40;11.60;90.50
42755;DHT22;28407;51.830;5.684;2022-12-29T04:09:41;11.60;90.50
42755;DHT22;28407;51.830;5.684;2022-12-29T04:11:45;11.60;90.50
42755;DHT22;28407;51.830;5.684;2022-12-29T04:13:45;11.60;90.50
42755;DHT22;28407;51.830;5.684;2022-12-29T04:15:49;11.60;90.50
42755;DHT22;28407;51.830;5.684;2022-12-29T04:17:52;11.60;90.40
42755;DHT22;28407;51.830;5.684;2022-12-29T04:19:53;11.60;90.50
42755;DHT22;28407;51.830;5.684;2022-12-29T04:22:13;11.60;90.50
42755;DHT22;28407;51.830;5.684;2022-12-29T04:24:14;11.60;90.50
42755;DHT22;28407;51.830;5.684;2022-12-29T04:26:16;11.60;90.50
42755;DHT22;28407;51.830;5.684;2022-12-29T04:28:35;11.50;90.40
42755;DHT22;28407;51.830;5.684;2022-12-29T04:31:05;11.50;90.40
42755;DHT22;28407;51.830;5.684;2022-12-29T04:33:11;11.50;90.40
42755;DHT22;28407;51.830;5.684;2022-12-29T04:35:13;11.50;90.40
42755;DHT22;28407;51.830;5.684;2022-12-29T04:37:14;11.50;90.40
42755;DHT22;28407;51.830;5.684;2022-12-29T04:39:15;11.50;90.40
42755;DHT22;28407;51.830;5.684;2022-12-29T04:41:16;11.50;90.40
42755;DHT22;28407;51.830;5.684;2022-12-29T04:43:17;11.50;90.30
42755;DHT22;28407;51.830;5.684;2022-12-29T04:45:48;11.50;90.30
42755;DHT22;28407;51.830;5.684;2022-12-29T04:48:01;11.50;90.40
42755;DHT22;28407;51.830;5.684;2022-12-29T04:50:20;11.50;90.40
42755;DHT22;28407;51.830;5.684;2022-12-29T04:52:47;11.40;90.40
42755;DHT22;28407;51.830;5.684;2022-12-29T04:54:48;11.40;90.40
42755;DHT22;28407;51.830;5.684;2022-12-29T04:56:52;11.40;90.40
42755;DHT22;28407;51.830;5.684;2022-12-29T04:58:53;11.40;90.40
42755;DHT22;28407;51.830;5.684;2022-12-29T05:00:55;11.40;90.50
42755;DHT22;28407;51.830;5.684;2022-12-29T05:02:58;11.40;90.50
42755;DHT22;28407;51.830;5.684;2022-12-29T05:04:59;11.30;90.60
42755;DHT22;28407;51.830;5.684;2022-12-29T05:07:00;11.30;90.60
42755;DHT22;28407;51.830;5.684;2022-12-29T05:09:02;11.30;90.70
42755;DHT22;28407;51.830;5.684;2022-12-29T05:11:03;11.30;90.80
42755;DHT22;28407;51.830;5.684;2022-12-29T05:13:04;11.20;90.80
42755;DHT22;28407;51.830;5.684;2022-12-29T05:15:06;11.20;90.80
42755;DHT22;28407;51.830;5.684;2022-12-29T05:17:08;11.20;90.90
42755;DHT22;28407;51.830;5.684;2022-12-29T05:19:09;11.20;90.90
42755;DHT22;28407;51.830;5.684;2022-12-29T05:21:10;11.10;90.90
42755;DHT22;28407;51.830;5.684;2022-12-29T05:23:12;11.10;91.00
42755;DHT22;28407;51.830;5.684;2022-12-29T05:25:12;11.10;91.00
42755;DHT22;28407;51.830;5.684;2022-12-29T05:27:24;11.10;91.00
42755;DHT22;28407;51.830;5.684;2022-12-29T05:29:52;11.10;91.00
42755;DHT22;28407;51.830;5.684;2022-12-29T05:31:52;11.00;91.00
42755;DHT22;28407;51.830;5.684;2022-12-29T05:33:53;11.00;91.00
42755;DHT22;28407;51.830;5.684;2022-12-29T05:35:54;11.00;91.00
42755;DHT22;28407;51.830;5.684;2022-12-29T05:37:57;11.00;91.00
42755;DHT22;28407;51.830;5.684;2022-12-29T05:39:57;10.90;91.00
42755;DHT22;28407;51.830;5.684;2022-12-29T05:41:59;10.90;91.00
42755;DHT22;28407;51.830;5.684;2022-12-29T05:44:15;10.90;91.00
42755;DHT22;28407;51.830;5.684;2022-12-29T05:46:27;10.90;91.00
42755;DHT22;28407;51.830;5.684;2022-12-29T05:48:51;10.90;91.00
42755;DHT22;28407;51.830;5.684;2022-12-29T05:50:59;10.80;90.90
42755;DHT22;28407;51.830;5.684;2022-12-29T05:53:11;10.80;90.90
42755;DHT22;28407;51.830;5.684;2022-12-29T05:55:13;10.80;90.80
42755;DHT22;28407;51.830;5.684;2022-12-29T05:57:14;10.80;90.80
42755;DHT22;28407;51.830;5.684;2022-12-29T05:59:18;10.80;90.80
42755;DHT22;28407;51.830;5.684;2022-12-29T06:01:19;10.80;90.70
42755;DHT22;28407;51.830;5.684;2022-12-29T06:03:19;10.80;90.70
42755;DHT22;28407;51.830;5.684;2022-12-29T06:05:21;10.80;90.70
42755;DHT22;28407;51.830;5.684;2022-12-29T06:07:21;10.80;90.60
42755;DHT22;28407;51.830;5.684;2022-12-29T06:09:22;10.80;90.60
42755;DHT22;28407;51.830;5.684;2022-12-29T06:11:23;10.80;90.60
42755;DHT22;28407;51.830;5.684;2022-12-29T06:13:28;10.70;90.50
42755;DHT22;28407;51.830;5.684;2022-12-29T06:15:30;10.70;90.40
42755;DHT22;28407;51.830;5.684;2022-12-29T06:17:30;10.70;90.40
42755;DHT22;28407;51.830;5.684;2022-12-29T06:19:31;10.70;90.30
42755;DHT22;28407;51.830;5.684;2022-12-29T06:21:32;10.70;90.20
42755;DHT22;28407;51.830;5.684;2022-12-29T06:23:35;10.70;90.20
42755;DHT22;28407;51.830;5.684;2022-12-29T06:25:35;10.70;90.20
42755;DHT22;28407;51.830;5.684;2022-12-29T06:27:36;10.70;90.20
42755;DHT22;28407;51.830;5.684;2022-12-29T06:29:37;10.70;90.10
42755;DHT22;28407;51.830;5.684;2022-12-29T06:31:40;10.70;90.40
42755;DHT22;28407;51.830;5.684;2022-12-29T06:33:40;10.70;90.00
42755;DHT22;28407;51.830;5.684;2022-12-29T06:35:42;10.70;90.00
42755;DHT22;28407;51.830;5.684;2022-12-29T06:37:43;10.70;90.00
42755;DHT22;28407;51.830;5.684;2022-12-29T06:39:44;10.70;89.90
42755;DHT22;28407;51.830;5.684;2022-12-29T06:41:46;10.80;89.80
42755;DHT22;28407;51.830;5.684;2022-12-29T06:43:56;10.80;89.50
42755;DHT22;28407;51.830;5.684;2022-12-29T06:46:17;10.80;89.20
42755;DHT22;28407;51.830;5.684;2022-12-29T06:48:18;10.80;88.90
42755;DHT22;28407;51.830;5.684;2022-12-29T06:50:19;10.80;88.80
42755;DHT22;28407;51.830;5.684;2022-12-29T06:52:19;10.80;88.80
42755;DHT22;28407;51.830;5.684;2022-12-29T06:54:20;10.80;88.50
42755;DHT22;28407;51.830;5.684;2022-12-29T06:56:20;10.90;88.40
42755;DHT22;28407;51.830;5.684;2022-12-29T06:58:21;10.90;88.30
42755;DHT22;28407;51.830;5.684;2022-12-29T07:00:23;10.90;88.10
42755;DHT22;28407;51.830;5.684;2022-12-29T07:02:23;10.90;88.10
42755;DHT22;28407;51.830;5.684;2022-12-29T07:04:25;10.80;88.00
42755;DHT22;28407;51.830;5.684;2022-12-29T07:06:26;10.80;88.00
42755;DHT22;28407;51.830;5.684;2022-12-29T07:08:26;10.90;87.90
42755;DHT22;28407;51.830;5.684;2022-12-29T07:10:27;10.90;87.90
42755;DHT22;28407;51.830;5.684;2022-12-29T07:12:28;10.90;87.90
42755;DHT22;28407;51.830;5.684;2022-12-29T07:14:28;10.90;87.80
42755;DHT22;28407;51.830;5.684;2022-12-29T07:16:29;10.90;87.70
42755;DHT22;28407;51.830;5.684;2022-12-29T07:18:30;10.90;87.70
42755;DHT22;28407;51.830;5.684;2022-12-29T07:20:31;10.90;87.70
42755;DHT22;28407;51.830;5.684;2022-12-29T07:22:32;10.90;87.70
42755;DHT22;28407;51.830;5.684;2022-12-29T07:24:33;10.90;87.50
42755;DHT22;28407;51.830;5.684;2022-12-29T07:26:33;10.90;87.50
42755;DHT22;28407;51.830;5.684;2022-12-29T07:28:35;10.90;87.40
42755;DHT22;28407;51.830;5.684;2022-12-29T07:30:36;10.90;87.40
42755;DHT22;28407;51.830;5.684;2022-12-29T07:32:38;10.90;87.40
42755;DHT22;28407;51.830;5.684;2022-12-29T07:34:38;10.90;87.30
42755;DHT22;28407;51.830;5.684;2022-12-29T07:36:40;10.90;87.20
42755;DHT22;28407;51.830;5.684;2022-12-29T07:38:41;10.90;87.00
42755;DHT22;28407;51.830;5.684;2022-12-29T07:40:42;11.00;86.90
42755;DHT22;28407;51.830;5.684;2022-12-29T07:42:43;11.00;86.80
42755;DHT22;28407;51.830;5.684;2022-12-29T07:44:44;11.00;86.80
42755;DHT22;28407;51.830;5.684;2022-12-29T07:46:53;11.00;86.80
42755;DHT22;28407;51.830;5.684;2022-12-29T07:48:53;11.00;86.80
42755;DHT22;28407;51.830;5.684;2022-12-29T07:50:54;11.00;86.80
42755;DHT22;28407;51.830;5.684;2022-12-29T07:52:55;10.90;86.70
42755;DHT22;28407;51.830;5.684;2022-12-29T07:54:55;11.00;86.70
42755;DHT22;28407;51.830;5.684;2022-12-29T07:56:56;10.90;86.60
42755;DHT22;28407;51.830;5.684;2022-12-29T07:58:57;10.90;86.60
42755;DHT22;28407;51.830;5.684;2022-12-29T08:00:58;10.90;86.60
42755;DHT22;28407;51.830;5.684;2022-12-29T08:02:59;10.90;86.60
42755;DHT22;28407;51.830;5.684;2022-12-29T08:04:59;11.00;86.60
42755;DHT22;28407;51.830;5.684;2022-12-29T08:07:00;10.90;86.50
42755;DHT22;28407;51.830;5.684;2022-12-29T08:09:01;10.90;86.50
42755;DHT22;28407;51.830;5.684;2022-12-29T08:11:02;10.90;86.40
42755;DHT22;28407;51.830;5.684;2022-12-29T08:13:02;10.90;86.20
42755;DHT22;28407;51.830;5.684;2022-12-29T08:15:03;10.80;86.20
42755;DHT22;28407;51.830;5.684;2022-12-29T08:17:04;10.80;86.10
42755;DHT22;28407;51.830;5.684;2022-12-29T08:19:05;10.80;85.80
42755;DHT22;28407;51.830;5.684;2022-12-29T08:21:05;10.80;85.80
42755;DHT22;28407;51.830;5.684;2022-12-29T08:23:06;10.80;85.80
42755;DHT22;28407;51.830;5.684;2022-12-29T08:25:07;10.80;85.70
42755;DHT22;28407;51.830;5.684;2022-12-29T08:27:07;10.80;85.60
42755;DHT22;28407;51.830;5.684;2022-12-29T08:29:08;10.80;85.60
42755;DHT22;28407;51.830;5.684;2022-12-29T08:31:09;10.80;85.50
42755;DHT22;28407;51.830;5.684;2022-12-29T08:33:10;10.80;85.50
42755;DHT22;28407;51.830;5.684;2022-12-29T08:35:10;10.80;85.40
42755;DHT22;28407;51.830;5.684;2022-12-29T08:37:11;10.80;85.40
42755;DHT22;28407;51.830;5.684;2022-12-29T08:39:11;10.80;85.20
42755;DHT22;28407;51.830;5.684;2022-12-29T08:41:12;10.80;85.20
42755;DHT22;28407;51.830;5.684;2022-12-29T08:43:13;10.80;85.30
42755;DHT22;28407;51.830;5.684;2022-12-29T08:45:14;10.80;85.20
42755;DHT22;28407;51.830;5.684;2022-12-29T08:47:15;10.90;85.20
42755;DHT22;28407;51.830;5.684;2022-12-29T08:49:15;10.90;85.20
42755;DHT22;28407;51.830;5.684;2022-12-29T08:51:16;10.90;85.20
42755;DHT22;28407;51.830;5.684;2022-12-29T08:53:18;10.90;85.20
42755;DHT22;28407;51.830;5.684;2022-12-29T08:55:18;10.90;85.20
42755;DHT22;28407;51.830;5.684;2022-12-29T08:57:20;10.90;85.10
42755;DHT22;28407;51.830;5.684;2022-12-29T08:59:39;10.90;85.00
42755;DHT22;28407;51.830;5.684;2022-12-29T09:01:40;10.90;84.90
42755;DHT22;28407;51.830;5.684;2022-12-29T09:03:40;11.00;84.90
42755;DHT22;28407;51.830;5.684;2022-12-29T09:05:41;11.00;84.90
42755;DHT22;28407;51.830;5.684;2022-12-29T09:07:41;11.00;84.80
42755;DHT22;28407;51.830;5.684;2022-12-29T09:09:42;11.00;84.70
42755;DHT22;28407;51.830;5.684;2022-12-29T09:11:43;11.00;84.70
42755;DHT22;28407;51.830;5.684;2022-12-29T09:13:43;11.00;84.70
42755;DHT22;28407;51.830;5.684;2022-12-29T09:15:45;11.00;84.60
42755;DHT22;28407;51.830;5.684;2022-12-29T09:17:45;11.00;84.60
42755;DHT22;28407;51.830;5.684;2022-12-29T09:19:46;11.00;84.70
42755;DHT22;28407;51.830;5.684;2022-12-29T09:21:47;10.90;84.70
42755;DHT22;28407;51.830;5.684;2022-12-29T09:23:48;10.90;84.70
42755;DHT22;28407;51.830;5.684;2022-12-29T09:25:48;11.00;84.80
42755;DHT22;28407;51.830;5.684;2022-12-29T09:27:49;10.90;84.80
42755;DHT22;28407;51.830;5.684;2022-12-29T09:29:50;10.90;84.80
42755;DHT22;28407;51.830;5.684;2022-12-29T09:31:50;11.00;84.80
42755;DHT22;28407;51.830;5.684;2022-12-29T09:33:51;11.00;84.70
42755;DHT22;28407;51.830;5.684;2022-12-29T09:35:56;11.00;84.60
42755;DHT22;28407;51.830;5.684;2022-12-29T09:37:57;11.00;84.60
42755;DHT22;28407;51.830;5.684;2022-12-29T09:39:57;11.00;84.40
42755;DHT22;28407;51.830;5.684;2022-12-29T09:44:28;11.00;84.40
42755;DHT22;28407;51.830;5.684;2022-12-29T09:46:35;11.00;84.50
42755;DHT22;28407;51.830;5.684;2022-12-29T09:48:43;10.90;84.50
42755;DHT22;28407;51.830;5.684;2022-12-29T09:50:48;10.90;84.60
42755;DHT22;28407;51.830;5.684;2022-12-29T09:55:12;10.90;84.80
42755;DHT22;28407;51.830;5.684;2022-12-29T09:57:24;10.90;84.80
42755;DHT22;28407;51.830;5.684;2022-12-29T09:59:36;10.90;85.00
42755;DHT22;28407;51.830;5.684;2022-12-29T10:04:03;10.80;85.30
42755;DHT22;28407;51.830;5.684;2022-12-29T10:06:13;10.80;85.50
42755;DHT22;28407;51.830;5.684;2022-12-29T10:08:31;10.80;85.70
42755;DHT22;28407;51.830;5.684;2022-12-29T10:10:38;10.80;85.90
42755;DHT22;28407;51.830;5.684;2022-12-29T10:13:24;10.70;86.10
42755;DHT22;28407;51.830;5.684;2022-12-29T10:15:33;10.70;86.50
42755;DHT22;28407;51.830;5.684;2022-12-29T10:17:54;10.70;86.70
42755;DHT22;28407;51.830;5.684;2022-12-29T10:20:12;10.60;86.80
42755;DHT22;28407;51.830;5.684;2022-12-29T10:24:25;10.60;87.10
42755;DHT22;28407;51.830;5.684;2022-12-29T10:26:40;10.60;87.20
42755;DHT22;28407;51.830;5.684;2022-12-29T10:30:56;10.60;87.60
42755;DHT22;28407;51.830;5.684;2022-12-29T10:33:02;10.60;87.60
42755;DHT22;28407;51.830;5.684;2022-12-29T10:35:31;10.50;87.70
42755;DHT22;28407;51.830;5.684;2022-12-29T10:39:46;10.50;88.00
42755;DHT22;28407;51.830;5.684;2022-12-29T10:44:14;10.50;88.20
42755;DHT22;28407;51.830;5.684;2022-12-29T10:46:19;10.50;88.20
42755;DHT22;28407;51.830;5.684;2022-12-29T10:48:28;10.50;88.30
42755;DHT22;28407;51.830;5.684;2022-12-29T10:50:31;10.50;88.40
42755;DHT22;28407;51.830;5.684;2022-12-29T10:52:33;10.50;88.40
42755;DHT22;28407;51.830;5.684;2022-12-29T10:54:46;10.50;88.50
42755;DHT22;28407;51.830;5.684;2022-12-29T10:56:53;10.60;88.70
42755;DHT22;28407;51.830;5.684;2022-12-29T10:58:57;10.60;88.70
42755;DHT22;28407;51.830;5.684;2022-12-29T11:00:59;10.60;88.70
42755;DHT22;28407;51.830;5.684;2022-12-29T11:07:29;10.70;88.80
42755;DHT22;28407;51.830;5.684;2022-12-29T11:09:33;10.70;88.70
42755;DHT22;28407;51.830;5.684;2022-12-29T11:11:36;10.70;88.70
42755;DHT22;28407;51.830;5.684;2022-12-29T11:16:03;10.80;88.70
42755;DHT22;28407;51.830;5.684;2022-12-29T11:18:04;10.80;88.60
42755;DHT22;28407;51.830;5.684;2022-12-29T11:22:30;10.80;88.80
42755;DHT22;28407;51.830;5.684;2022-12-29T11:24:31;10.80;88.70
42755;DHT22;28407;51.830;5.684;2022-12-29T11:26:33;10.80;88.70
42755;DHT22;28407;51.830;5.684;2022-12-29T11:28:33;10.80;88.70
42755;DHT22;28407;51.830;5.684;2022-12-29T11:30:34;10.80;89.20
42755;DHT22;28407;51.830;5.684;2022-12-29T11:32:35;10.90;88.70
42755;DHT22;28407;51.830;5.684;2022-12-29T11:34:36;10.90;88.70
42755;DHT22;28407;51.830;5.684;2022-12-29T11:36:38;10.90;88.70
42755;DHT22;28407;51.830;5.684;2022-12-29T11:38:41;10.90;88.70
42755;DHT22;28407;51.830;5.684;2022-12-29T11:40:42;10.90;88.60
42755;DHT22;28407;51.830;5.684;2022-12-29T11:42:58;11.00;88.60
42755;DHT22;28407;51.830;5.684;2022-12-29T11:45:06;11.00;88.70
42755;DHT22;28407;51.830;5.684;2022-12-29T11:47:11;11.00;88.60
42755;DHT22;28407;51.830;5.684;2022-12-29T11:49:20;11.00;88.50
42755;DHT22;28407;51.830;5.684;2022-12-29T11:53:45;11.00;88.40
42755;DHT22;28407;51.830;5.684;2022-12-29T11:56:14;11.00;88.30
42755;DHT22;28407;51.830;5.684;2022-12-29T11:58:16;11.00;88.20
42755;DHT22;28407;51.830;5.684;2022-12-29T12:00:19;11.10;88.20
42755;DHT22;28407;51.830;5.684;2022-12-29T12:04:27;11.10;88.50
42755;DHT22;28407;51.830;5.684;2022-12-29T12:06:32;11.10;88.70
42755;DHT22;28407;51.830;5.684;2022-12-29T12:08:54;11.10;88.00
42755;DHT22;28407;51.830;5.684;2022-12-29T12:11:22;11.10;87.90
42755;DHT22;28407;51.830;5.684;2022-12-29T12:13:36;11.10;87.80
42755;DHT22;28407;51.830;5.684;2022-12-29T12:15:43;11.10;87.70
42755;DHT22;28407;51.830;5.684;2022-12-29T12:17:55;11.10;87.60
42755;DHT22;28407;51.830;5.684;2022-12-29T12:22:16;11.10;87.60
42755;DHT22;28407;51.830;5.684;2022-12-29T12:24:39;11.10;87.50
42755;DHT22;28407;51.830;5.684;2022-12-29T12:30:55;11.10;87.40
42755;DHT22;28407;51.830;5.684;2022-12-29T12:33:19;11.10;87.40
42755;DHT22;28407;51.830;5.684;2022-12-29T12:35:34;11.10;87.40
42755;DHT22;28407;51.830;5.684;2022-12-29T12:37:59;11.00;87.40
42755;DHT22;28407;51.830;5.684;2022-12-29T12:42:42;11.10;87.40
42755;DHT22;28407;51.830;5.684;2022-12-29T12:45:02;11.10;87.50
42755;DHT22;28407;51.830;5.684;2022-12-29T12:52:25;11.10;87.50
42755;DHT22;28407;51.830;5.684;2022-12-29T12:57:13;11.00;87.50
42755;DHT22;28407;51.830;5.684;2022-12-29T12:59:26;11.10;87.60
42755;DHT22;28407;51.830;5.684;2022-12-29T13:01:42;11.10;87.60
42755;DHT22;28407;51.830;5.684;2022-12-29T13:06:18;11.10;87.50
42755;DHT22;28407;51.830;5.684;2022-12-29T13:11:00;11.20;87.40
42755;DHT22;28407;51.830;5.684;2022-12-29T13:13:21;11.20;87.30
42755;DHT22;28407;51.830;5.684;2022-12-29T13:15:47;11.20;87.30
42755;DHT22;28407;51.830;5.684;2022-12-29T13:18:23;11.20;87.20
42755;DHT22;28407;51.830;5.684;2022-12-29T13:36:01;11.20;86.80
42755;DHT22;28407;51.830;5.684;2022-12-29T13:38:12;11.20;86.70
42755;DHT22;28407;51.830;5.684;2022-12-29T13:40:18;11.20;86.60
42755;DHT22;28407;51.830;5.684;2022-12-29T13:42:19;11.20;86.60
42755;DHT22;28407;51.830;5.684;2022-12-29T13:44:46;11.20;86.60
42755;DHT22;28407;51.830;5.684;2022-12-29T13:46:48;11.20;86.60
42755;DHT22;28407;51.830;5.684;2022-12-29T13:48:58;11.20;86.50
42755;DHT22;28407;51.830;5.684;2022-12-29T13:51:00;11.20;86.60
42755;DHT22;28407;51.830;5.684;2022-12-29T13:53:10;11.20;86.50
42755;DHT22;28407;51.830;5.684;2022-12-29T13:55:40;11.20;86.50
42755;DHT22;28407;51.830;5.684;2022-12-29T14:00:12;11.10;86.40
42755;DHT22;28407;51.830;5.684;2022-12-29T14:04:33;11.10;86.50
42755;DHT22;28407;51.830;5.684;2022-12-29T14:06:35;11.10;86.70
42755;DHT22;28407;51.830;5.684;2022-12-29T14:08:40;11.00;86.60
42755;DHT22;28407;51.830;5.684;2022-12-29T14:10:50;11.00;86.80
42755;DHT22;28407;51.830;5.684;2022-12-29T14:12:51;10.90;86.70
42755;DHT22;28407;51.830;5.684;2022-12-29T14:14:52;10.90;86.80
42755;DHT22;28407;51.830;5.684;2022-12-29T14:16:52;10.90;86.90
42755;DHT22;28407;51.830;5.684;2022-12-29T14:18:54;10.90;86.90
42755;DHT22;28407;51.830;5.684;2022-12-29T14:27:55;10.80;87.10
42755;DHT22;28407;51.830;5.684;2022-12-29T14:29:56;10.80;87.30
42755;DHT22;28407;51.830;5.684;2022-12-29T14:31:56;10.80;87.30
42755;DHT22;28407;51.830;5.684;2022-12-29T14:36:25;10.80;87.50
42755;DHT22;28407;51.830;5.684;2022-12-29T14:38:28;10.80;87.50
42755;DHT22;28407;51.830;5.684;2022-12-29T14:40:30;10.80;87.50
42755;DHT22;28407;51.830;5.684;2022-12-29T14:42:31;10.80;87.50
42755;DHT22;28407;51.830;5.684;2022-12-29T14:44:33;10.80;87.60
42755;DHT22;28407;51.830;5.684;2022-12-29T14:46:49;10.70;87.60
42755;DHT22;28407;51.830;5.684;2022-12-29T14:48:58;10.70;87.60
42755;DHT22;28407;51.830;5.684;2022-12-29T14:51:01;10.70;87.70
42755;DHT22;28407;51.830;5.684;2022-12-29T14:53:05;10.70;87.70
42755;DHT22;28407;51.830;5.684;2022-12-29T14:57:19;10.70;87.80
42755;DHT22;28407;51.830;5.684;2022-12-29T14:59:22;10.70;87.90
42755;DHT22;28407;51.830;5.684;2022-12-29T15:01:48;10.70;87.90
42755;DHT22;28407;51.830;5.684;2022-12-29T15:03:53;10.70;87.90
42755;DHT22;28407;51.830;5.684;2022-12-29T15:05:58;10.60;87.90
42755;DHT22;28407;51.830;5.684;2022-12-29T15:07:59;10.60;88.00